»·PEaware :: N1JG KDEN-KEGE

N1JG :: KDEN-KEGE

FLIGHT INFORMATION

Flight Status: Arrived
Operator: Privately registered:
United States
More flights under this callsign
Pilot: Josh Gibbs (4619)
Aircraft: AIRBUS A320
(A320)
More flights by this aircraft type
Origin: KDEN Denver Intl
United States
Destination: KEGE Eagle Co Regl
United States
More flights between these airports :: More routes between these airports
Route: FOOOT3 RLG
File this flight plan on PilotEdge
Remarks:
Altitude:
(Current/Filed)
20,000ft
Speed:
(Current/Filed)
450kts
Departed: 10-Jan-17 07:48 PM
Arrived: 10-Jan-17 08:15 PM
Distance/Time
Traveled:
105nm/0:27
Distance/Time
To Go:
Arrived

Flight Plot

Page will automatically refresh every two minutes.

Flight plan parsing failed; only flown route is shown


Map Options




Map Legend


Flown Route
Filed Route
Departure Airport
Arrival Airport
Navaid (VOR, NDB)
Fix

Horizontal Profiles

Position Reports

Time Latitude Longitude Heading Altitude Ground
Speed
10-Jan-17 19:29 39.859390 -104.678407 179 5440ft 0kts
10-Jan-17 19:30 39.859390 -104.678407 179 5440ft 0kts
10-Jan-17 19:31 39.859390 -104.678407 179 5440ft 0kts
10-Jan-17 19:32 39.859390 -104.678407 179 5440ft 0kts
10-Jan-17 19:33 39.859390 -104.678407 179 5440ft 0kts
10-Jan-17 19:34 39.859390 -104.678407 179 5440ft 0kts
10-Jan-17 19:35 39.859390 -104.678407 179 5440ft 0kts
10-Jan-17 19:36 39.859430 -104.678407 179 5440ft 0kts
10-Jan-17 19:37 39.860212 -104.678029 277 5439ft 0kts
10-Jan-17 19:38 39.860212 -104.678029 277 5439ft 0kts
10-Jan-17 19:39 39.860212 -104.678029 277 5439ft 0kts
10-Jan-17 19:40 39.860340 -104.679813 270 5440ft 17kts
10-Jan-17 19:41 39.859848 -104.683904 188 5439ft 10kts
10-Jan-17 19:42 39.854781 -104.684000 180 5439ft 21kts
10-Jan-17 19:43 39.848415 -104.684030 181 5439ft 24kts
10-Jan-17 19:44 39.841891 -104.684107 182 5440ft 5kts
10-Jan-17 19:45 39.841870 -104.684108 182 5440ft 0kts
10-Jan-17 19:46 39.841870 -104.684108 182 5440ft 0kts
10-Jan-17 19:47 39.840673 -104.684800 262 5440ft 15kts
10-Jan-17 19:48 39.840945 -104.720090 275 6100ft 156kts
10-Jan-17 19:49 39.865888 -104.771202 308 7697ft 195kts
10-Jan-17 19:50 39.892958 -104.828895 292 9082ft 238kts
10-Jan-17 19:51 39.915160 -104.919619 289 10518ft 302kts
10-Jan-17 19:52 39.950492 -105.032901 279 12004ft 362kts
10-Jan-17 19:53 39.964518 -105.145733 277 15873ft 338kts
10-Jan-17 19:54 39.978359 -105.264071 276 18614ft 339kts
10-Jan-17 19:55 39.983635 -105.385334 267 19724ft 342kts
10-Jan-17 19:56 39.979752 -105.507848 267 19725ft 342kts
10-Jan-17 19:57 39.975970 -105.631804 270 19756ft 354kts
10-Jan-17 19:58 39.972857 -105.768807 268 19862ft 412kts
10-Jan-17 19:59 39.974425 -105.920698 274 19859ft 424kts
10-Jan-17 20:00 39.982754 -106.072708 274 19860ft 422kts
10-Jan-17 20:01 39.990921 -106.218087 275 19770ft 368kts
10-Jan-17 20:02 39.996873 -106.329778 272 18710ft 271kts
10-Jan-17 20:03 40.002319 -106.435368 271 13945ft 327kts
10-Jan-17 20:04 39.954170 -106.500286 169 12858ft 253kts
10-Jan-17 20:05 39.883178 -106.479724 171 12919ft 262kts
10-Jan-17 20:06 39.816541 -106.485257 208 12914ft 233kts
10-Jan-17 20:07 39.765318 -106.526714 215 12525ft 218kts
10-Jan-17 20:08 39.711884 -106.563071 208 12524ft 220kts
10-Jan-17 20:09 39.685437 -106.621575 259 12135ft 210kts
10-Jan-17 20:10 39.674168 -106.698471 260 10569ft 204kts
10-Jan-17 20:11 39.665127 -106.759641 260 9371ft 158kts
10-Jan-17 20:12 39.657132 -106.813361 260 8327ft 149kts
10-Jan-17 20:13 39.648690 -106.865799 256 7281ft 151kts
10-Jan-17 20:14 39.642850 -106.915285 258 6549ft 83kts
10-Jan-17 20:15 39.641166 -106.921716 79 6548ft 21kts
10-Jan-17 20:16 39.640945 -106.914890 185 6549ft 11kts
10-Jan-17 20:17 39.640577 -106.914826 171 6548ft 0kts
10-Jan-17 20:18 39.640577 -106.914826 171 6548ft 0kts
10-Jan-17 20:19 39.640577 -106.914826 171 6548ft 0kts
10-Jan-17 20:20 39.640577 -106.914826 171 6548ft 0kts
10-Jan-17 20:21 39.640577 -106.914826 171 6548ft 0kts
10-Jan-17 20:22 39.640577 -106.914826 171 6548ft 0kts
10-Jan-17 20:23 39.640577 -106.914826 171 6548ft 0kts
10-Jan-17 20:24 39.640577 -106.914826 171 6548ft 0kts
10-Jan-17 20:25 39.640577 -106.914826 171 6548ft 0kts
10-Jan-17 20:26 39.640577 -106.914826 171 6548ft 0kts
10-Jan-17 20:27 39.640577 -106.914826 171 6548ft 0kts
10-Jan-17 20:28 39.640577 -106.914826 171 6548ft 0kts
10-Jan-17 20:29 39.640577 -106.914826 171 6548ft 0kts

Navigation Log

Ident Type Via Name
Flight plan parsing failed, navigation log unavailable